Time;durP1;ratioP1;P1;durP2;ratioP2;P2;SDS_P1;SDS_P2;PMS_P1;PMS_P2;Temp;Humidity;BMP_temperature;BMP_pressure;BME280_temperature;BME280_humidity;BME280_pressure;Samples;Min_cycle;Max_cycle;Signal;HPM_P1;HPM_P2
2023/12/08 00:00:50;;;;;;;0.50;0.50;;;3.90;99.90;;;;;;5056254;28;20677;-80
2023/12/08 00:03:17;;;;;;;0.50;0.40;;;3.90;99.90;;;;;;5058474;28;20227;-81
2023/12/08 00:05:44;;;;;;;0.68;0.68;;;3.90;99.90;;;;;;5047516;28;20277;-81
2023/12/08 00:08:10;;;;;;;0.55;0.55;;;4.00;99.90;;;;;;5055702;28;20205;-81
2023/12/08 00:10:37;;;;;;;0.60;0.60;;;4.00;99.90;;;;;;5055255;28;20207;-81
2023/12/08 00:13:04;;;;;;;0.50;0.43;;;4.00;99.90;;;;;;5055217;28;20242;-82
2023/12/08 00:15:31;;;;;;;0.50;0.40;;;3.90;99.90;;;;;;5054445;28;20242;-81
2023/12/08 00:17:59;;;;;;;0.50;0.40;;;3.90;99.90;;;;;;5055284;28;20662;-82
2023/12/08 00:20:26;;;;;;;0.50;0.40;;;3.90;99.90;;;;;;5055641;28;20286;-81
2023/12/08 00:22:53;;;;;;;0.50;0.50;;;3.90;99.90;;;;;;5055904;28;20215;-81
2023/12/08 00:25:19;;;;;;;0.50;0.40;;;3.90;99.90;;;;;;5055582;28;20195;-81
2023/12/08 00:27:46;;;;;;;0.50;0.40;;;3.90;99.90;;;;;;5047365;28;20199;-80
2023/12/08 00:30:13;;;;;;;0.50;0.40;;;3.90;99.90;;;;;;5054789;28;20203;-82
2023/12/08 00:32:40;;;;;;;0.50;0.40;;;3.90;99.90;;;;;;5055404;28;20219;-81
2023/12/08 00:35:09;;;;;;;0.50;0.45;;;4.00;99.90;;;;;;5055518;28;20218;-82
2023/12/08 00:37:36;;;;;;;0.50;0.40;;;4.00;99.90;;;;;;5055596;28;20249;-80
2023/12/08 00:40:05;;;;;;;0.50;0.40;;;4.10;99.90;;;;;;5056333;28;20209;-80
2023/12/08 00:42:31;;;;;;;1.13;0.98;;;4.10;99.90;;;;;;5054818;28;20237;-81
2023/12/08 00:44:58;;;;;;;0.50;0.50;;;4.10;99.90;;;;;;5055024;28;20684;-81
2023/12/08 00:47:25;;;;;;;0.75;0.70;;;4.00;99.90;;;;;;5055749;28;20209;-81
2023/12/08 00:49:52;;;;;;;0.70;0.70;;;4.00;99.90;;;;;;5055769;28;20191;-81
2023/12/08 00:52:20;;;;;;;1.40;1.20;;;4.10;99.90;;;;;;5054720;28;20729;-81
2023/12/08 00:54:47;;;;;;;0.77;0.77;;;4.00;99.90;;;;;;5054627;28;20265;-81
2023/12/08 00:57:13;;;;;;;0.50;0.40;;;4.00;99.90;;;;;;5055510;28;20199;-81
2023/12/08 00:59:40;;;;;;;5.68;2.63;;;4.00;99.90;;;;;;5055124;28;20202;-81
2023/12/08 01:02:07;;;;;;;4.03;2.35;;;4.00;99.90;;;;;;5054734;28;20226;-81
2023/12/08 01:04:35;;;;;;;0.50;0.40;;;4.00;99.90;;;;;;5054793;28;20226;-81
2023/12/08 01:07:01;;;;;;;1.20;1.20;;;4.00;99.90;;;;;;5054984;28;20560;-82
2023/12/08 01:09:29;;;;;;;1.27;1.17;;;4.00;99.90;;;;;;5053841;28;20270;-81
2023/12/08 01:11:56;;;;;;;0.50;0.40;;;4.00;99.90;;;;;;5054540;28;20191;-81
2023/12/08 01:14:23;;;;;;;0.50;0.40;;;4.00;99.90;;;;;;5055327;28;20199;-82
2023/12/08 01:16:50;;;;;;;1.63;0.93;;;4.00;99.90;;;;;;5054864;28;20302;-81
2023/12/08 01:19:16;;;;;;;0.60;0.55;;;4.00;99.90;;;;;;5054529;28;20207;-81
2023/12/08 01:21:43;;;;;;;0.50;0.40;;;4.10;99.90;;;;;;5054167;28;20195;-82
2023/12/08 01:24:10;;;;;;;0.50;0.40;;;4.10;99.90;;;;;;5054695;28;20210;-81
2023/12/08 01:26:43;;;;;;;0.50;0.50;;;4.20;99.90;;;;;;5054969;28;20203;-81
2023/12/08 01:29:10;;;;;;;0.50;0.40;;;4.20;99.90;;;;;;5054527;28;20213;-81
2023/12/08 01:31:37;;;;;;;0.50;0.40;;;4.20;99.90;;;;;;5054445;28;20203;-81
2023/12/08 01:34:03;;;;;;;1.08;0.60;;;4.20;99.90;;;;;;5055533;28;20206;-81
2023/12/08 01:36:30;;;;;;;2.25;1.48;;;4.20;99.90;;;;;;5054594;28;20215;-81
2023/12/08 01:38:57;;;;;;;0.50;0.43;;;4.20;99.90;;;;;;5054779;28;20199;-81
2023/12/08 01:41:24;;;;;;;2.35;1.55;;;4.20;99.90;;;;;;5054569;28;20199;-82
2023/12/08 01:43:52;;;;;;;1.23;0.85;;;4.20;99.90;;;;;;5054321;28;20210;-82
2023/12/08 01:46:20;;;;;;;4.13;1.63;;;4.10;99.90;;;;;;5054715;28;20658;-81
2023/12/08 01:48:48;;;;;;;0.50;0.50;;;4.10;99.90;;;;;;5054132;28;20206;-79
2023/12/08 01:51:16;;;;;;;2.22;2.13;;;4.10;99.90;;;;;;5054327;28;20206;-81
2023/12/08 01:53:44;;;;;;;1.80;1.45;;;4.10;99.90;;;;;;5059168;28;20226;-81
2023/12/08 01:56:13;;;;;;;6.28;1.88;;;4.10;99.90;;;;;;5068598;28;20215;-81
2023/12/08 01:58:40;;;;;;;2.72;2.53;;;4.00;99.90;;;;;;5063593;28;20207;-82
2023/12/08 02:01:10;;;;;;;1.35;1.25;;;4.00;99.90;;;;;;5055851;28;20199;-80
2023/12/08 02:03:38;;;;;;;4.30;2.70;;;4.00;99.90;;;;;;5055662;28;20242;-82
2023/12/08 02:06:05;;;;;;;1.23;1.13;;;4.00;99.90;;;;;;5056643;28;20282;-82
2023/12/08 02:08:33;;;;;;;1.35;1.25;;;3.90;99.90;;;;;;5055735;28;20206;-81
2023/12/08 02:10:59;;;;;;;1.05;0.90;;;3.90;99.90;;;;;;5054958;28;20217;-80
2023/12/08 02:13:26;;;;;;;0.50;0.43;;;3.80;99.90;;;;;;5055670;28;20216;-81
2023/12/08 02:15:58;;;;;;;2.65;2.42;;;3.80;99.90;;;;;;5055408;28;20215;-82
2023/12/08 02:18:27;;;;;;;5.75;2.35;;;3.80;99.90;;;;;;5055138;28;20266;-81
2023/12/08 02:20:54;;;;;;;1.58;1.48;;;3.80;99.90;;;;;;5055309;28;20191;-82
2023/12/08 02:23:21;;;;;;;1.65;1.20;;;3.80;99.90;;;;;;5058469;28;20215;-81
2023/12/08 02:25:49;;;;;;;1.55;1.45;;;3.90;99.90;;;;;;5058206;28;20191;-81
2023/12/08 02:28:16;;;;;;;14.20;4.15;;;3.80;99.90;;;;;;5058181;28;20578;-82
2023/12/08 02:30:43;;;;;;;0.60;0.60;;;3.80;99.90;;;;;;5057728;28;20202;-81
2023/12/08 02:33:15;;;;;;;1.13;0.80;;;3.80;99.90;;;;;;5058014;28;20225;-81
2023/12/08 02:35:45;;;;;;;0.50;0.50;;;3.70;99.90;;;;;;5057747;28;20226;-81
2023/12/08 02:38:18;;;;;;;2.92;1.85;;;3.80;99.90;;;;;;5057991;28;20209;-81
2023/12/08 02:40:44;;;;;;;1.13;1.13;;;3.80;99.90;;;;;;5057666;28;20198;-81
2023/12/08 02:43:13;;;;;;;1.58;1.48;;;3.80;99.90;;;;;;5057770;28;20227;-82
2023/12/08 02:45:40;;;;;;;0.50;0.40;;;3.80;99.90;;;;;;5057552;28;20191;-82
2023/12/08 02:48:06;;;;;;;0.65;0.65;;;3.80;99.90;;;;;;5057083;28;20242;-82
2023/12/08 02:50:33;;;;;;;0.50;0.40;;;3.80;99.90;;;;;;5057372;28;20206;-80
2023/12/08 02:53:00;;;;;;;5.78;2.83;;;3.90;99.90;;;;;;5050050;28;20219;-81
2023/12/08 02:55:27;;;;;;;2.05;1.95;;;3.80;99.90;;;;;;5058083;28;20223;-81
2023/12/08 02:57:54;;;;;;;1.23;0.80;;;3.70;99.90;;;;;;5057507;28;20350;-82
2023/12/08 03:00:22;;;;;;;1.48;1.13;;;3.70;99.90;;;;;;5057589;28;20195;-82
2023/12/08 03:02:48;;;;;;;1.77;0.70;;;3.50;99.90;;;;;;5057803;28;20219;-81
2023/12/08 03:05:15;;;;;;;4.85;1.63;;;3.40;99.90;;;;;;5057987;28;20206;-80
2023/12/08 03:07:42;;;;;;;5.45;2.95;;;3.30;99.90;;;;;;5056944;28;20730;-81
2023/12/08 03:10:09;;;;;;;1.00;0.90;;;3.20;99.90;;;;;;5057297;28;20581;-80
2023/12/08 03:12:36;;;;;;;0.50;0.40;;;3.10;99.90;;;;;;5057738;28;20219;-81
2023/12/08 03:15:04;;;;;;;3.25;2.55;;;3.00;99.90;;;;;;5057269;28;20285;-81
2023/12/08 03:17:33;;;;;;;0.93;0.90;;;2.90;99.90;;;;;;5056767;28;20225;-81
2023/12/08 03:19:59;;;;;;;0.50;0.50;;;2.90;99.90;;;;;;5056255;28;20203;-81
2023/12/08 03:22:27;;;;;;;1.15;1.15;;;2.80;99.90;;;;;;5056482;28;20229;-81
2023/12/08 03:24:54;;;;;;;0.50;0.40;;;2.70;99.90;;;;;;5056273;28;20290;-81
2023/12/08 03:27:20;;;;;;;0.70;0.70;;;2.70;99.90;;;;;;5056446;28;20195;-82
2023/12/08 03:29:47;;;;;;;1.35;1.25;;;2.70;99.90;;;;;;5056409;28;20259;-82
2023/12/08 03:32:14;;;;;;;0.50;0.50;;;2.60;99.90;;;;;;5056021;28;20219;-81
2023/12/08 03:34:42;;;;;;;2.45;1.40;;;2.60;99.90;;;;;;5055629;28;20205;-82
2023/12/08 03:37:09;;;;;;;1.63;1.17;;;2.60;99.90;;;;;;5056488;28;20234;-81
2023/12/08 03:39:36;;;;;;;0.93;0.93;;;2.60;99.90;;;;;;5055438;28;20208;-82
2023/12/08 03:42:03;;;;;;;1.85;1.02;;;2.60;99.90;;;;;;5056413;28;20233;-82
2023/12/08 03:44:29;;;;;;;3.97;3.58;;;2.60;99.90;;;;;;5060344;28;20185;-80
2023/12/08 03:46:56;;;;;;;2.13;1.98;;;2.60;99.90;;;;;;5073391;28;20263;-80
2023/12/08 03:49:23;;;;;;;0.50;0.40;;;2.60;99.90;;;;;;5075129;28;20191;-81
2023/12/08 03:51:51;;;;;;;1.67;0.88;;;2.60;99.90;;;;;;5069590;28;20291;-80
2023/12/08 03:54:18;;;;;;;5.75;1.38;;;2.60;99.90;;;;;;5065362;28;20226;-80
2023/12/08 03:56:45;;;;;;;0.70;0.70;;;2.70;99.90;;;;;;5064748;28;20222;-79
2023/12/08 03:59:11;;;;;;;6.95;1.42;;;2.70;99.90;;;;;;5063476;28;20741;-80
2023/12/08 04:01:38;;;;;;;1.05;1.05;;;2.80;99.90;;;;;;5064857;28;20199;-80
2023/12/08 04:04:05;;;;;;;0.50;0.40;;;2.70;99.90;;;;;;5058687;28;20197;-79
2023/12/08 04:06:31;;;;;;;0.50;0.40;;;2.70;99.90;;;;;;5067026;28;20218;-82
2023/12/08 04:09:00;;;;;;;1.08;0.82;;;2.70;99.90;;;;;;5061179;28;20195;-79
2023/12/08 04:11:26;;;;;;;1.20;1.20;;;2.70;99.90;;;;;;5065127;28;20197;-82
2023/12/08 04:13:53;;;;;;;0.50;0.40;;;2.80;99.90;;;;;;5056278;28;20211;-82
2023/12/08 04:16:20;;;;;;;0.50;0.40;;;2.80;99.90;;;;;;5056150;28;20219;-82
2023/12/08 04:18:46;;;;;;;0.77;0.70;;;2.80;99.90;;;;;;5055998;28;20198;-81
2023/12/08 04:21:17;;;;;;;0.50;0.40;;;2.80;99.90;;;;;;5055454;28;20198;-82
2023/12/08 04:23:44;;;;;;;0.50;0.40;;;2.70;99.90;;;;;;5055650;28;20215;-81
2023/12/08 04:26:12;;;;;;;0.50;0.40;;;2.70;99.90;;;;;;5055579;28;20197;-82
2023/12/08 04:28:39;;;;;;;1.08;0.77;;;2.70;99.90;;;;;;5054955;28;20663;-82
2023/12/08 04:31:06;;;;;;;1.88;0.85;;;2.70;99.90;;;;;;5055140;28;20195;-82
2023/12/08 04:33:33;;;;;;;0.85;0.85;;;2.70;99.90;;;;;;5055100;28;20247;-81
2023/12/08 04:36:00;;;;;;;0.60;0.60;;;2.70;99.90;;;;;;5055056;28;20305;-81
2023/12/08 04:38:27;;;;;;;1.42;1.40;;;2.70;99.90;;;;;;5055177;28;20201;-82
2023/12/08 04:40:53;;;;;;;4.38;2.65;;;2.70;99.90;;;;;;5055032;28;20262;-80
2023/12/08 04:43:23;;;;;;;7.25;3.00;;;2.70;99.90;;;;;;5054529;28;20226;-81
2023/12/08 04:45:50;;;;;;;0.50;0.40;;;2.80;99.90;;;;;;5054763;28;20210;-82
2023/12/08 04:48:17;;;;;;;4.60;1.42;;;2.80;99.90;;;;;;5054581;28;20207;-82
2023/12/08 04:50:44;;;;;;;1.15;1.05;;;2.80;99.90;;;;;;5054964;28;20198;-82
2023/12/08 04:53:10;;;;;;;1.13;1.13;;;2.80;99.90;;;;;;5046782;28;20218;-82
2023/12/08 04:55:37;;;;;;;2.78;2.58;;;2.90;99.90;;;;;;5054767;28;20611;-82
2023/12/08 04:58:04;;;;;;;5.20;2.97;;;2.90;99.90;;;;;;5054481;28;20210;-82
2023/12/08 05:00:32;;;;;;;0.60;0.60;;;2.80;99.90;;;;;;5054734;28;20210;-82
2023/12/08 05:02:59;;;;;;;2.35;1.30;;;2.80;99.90;;;;;;5054810;28;20728;-82
2023/12/08 05:05:27;;;;;;;3.63;3.38;;;2.80;99.90;;;;;;5054941;28;20205;-81
2023/12/08 05:07:54;;;;;;;0.50;0.50;;;2.80;99.90;;;;;;5054721;28;20191;-80
2023/12/08 05:10:20;;;;;;;7.82;4.10;;;2.80;99.90;;;;;;5054770;28;20221;-82
2023/12/08 05:12:48;;;;;;;0.50;0.50;;;2.70;99.90;;;;;;5054548;28;20593;-81
2023/12/08 05:15:15;;;;;;;2.45;2.15;;;2.60;99.90;;;;;;5055021;28;20201;-82
2023/12/08 05:17:43;;;;;;;7.57;4.32;;;2.70;99.90;;;;;;5054860;28;20214;-81
2023/12/08 05:20:12;;;;;;;4.30;3.15;;;2.60;99.90;;;;;;5054546;28;20686;-81
2023/12/08 05:22:39;;;;;;;1.40;0.95;;;2.50;99.90;;;;;;5054737;28;20347;-81
2023/12/08 05:25:08;;;;;;;7.30;5.72;;;2.50;99.90;;;;;;5054726;28;20289;-81
2023/12/08 05:27:34;;;;;;;2.72;2.22;;;2.40;99.90;;;;;;5054729;28;20197;-81
2023/12/08 05:30:02;;;;;;;1.45;1.38;;;2.40;99.90;;;;;;5053559;28;20289;-81
2023/12/08 05:32:29;;;;;;;4.40;3.53;;;2.40;99.90;;;;;;5054563;28;20218;-83
2023/12/08 05:34:57;;;;;;;4.10;1.52;;;2.40;99.90;;;;;;5054462;28;20201;-81
2023/12/08 05:37:23;;;;;;;0.60;0.60;;;2.40;99.90;;;;;;5053781;28;20218;-83
2023/12/08 05:39:50;;;;;;;1.83;1.73;;;2.40;99.90;;;;;;5053156;28;20195;-80
2023/12/08 05:42:17;;;;;;;3.05;2.70;;;2.50;99.90;;;;;;5052451;28;20222;-81
2023/12/08 05:44:44;;;;;;;1.75;1.65;;;2.40;99.90;;;;;;5052703;28;20659;-79
2023/12/08 05:47:11;;;;;;;3.30;1.77;;;2.40;99.90;;;;;;5052694;28;21065;-81
2023/12/08 05:49:38;;;;;;;1.00;1.00;;;2.40;99.90;;;;;;5052572;28;20575;-80
2023/12/08 05:52:06;;;;;;;3.25;2.03;;;2.50;99.90;;;;;;5054035;28;20857;-80
2023/12/08 05:54:33;;;;;;;1.60;1.60;;;2.50;99.90;;;;;;5053606;28;20577;-81
2023/12/08 05:57:00;;;;;;;2.35;1.13;;;2.50;99.90;;;;;;5061330;28;20224;-81
2023/12/08 05:59:26;;;;;;;5.60;2.78;;;2.50;99.90;;;;;;5064585;28;20635;-80
2023/12/08 06:01:53;;;;;;;0.65;0.63;;;2.50;99.90;;;;;;5058762;28;20199;-81
2023/12/08 06:04:20;;;;;;;7.82;2.35;;;2.50;99.90;;;;;;5058245;28;20191;-81
2023/12/08 06:06:47;;;;;;;5.38;3.90;;;2.50;99.90;;;;;;5059040;28;20195;-79
2023/12/08 06:09:16;;;;;;;10.52;5.70;;;2.50;99.90;;;;;;5057467;28;20199;-79
2023/12/08 06:11:44;;;;;;;6.30;3.13;;;2.50;99.90;;;;;;5058805;28;20283;-81
2023/12/08 06:14:11;;;;;;;0.75;0.75;;;2.50;99.90;;;;;;5059071;28;20199;-81
2023/12/08 06:16:37;;;;;;;4.13;3.83;;;2.60;99.90;;;;;;5058340;28;20225;-81
2023/12/08 06:19:05;;;;;;;1.40;1.30;;;2.60;99.90;;;;;;5058114;28;20195;-81
2023/12/08 06:21:32;;;;;;;16.08;8.13;;;2.60;99.90;;;;;;5058117;28;20191;-79
2023/12/08 06:23:59;;;;;;;3.05;2.65;;;2.60;99.90;;;;;;5058881;28;20714;-81
2023/12/08 06:26:27;;;;;;;2.05;1.80;;;2.60;99.90;;;;;;5058722;28;20203;-81
2023/12/08 06:28:54;;;;;;;3.03;2.78;;;2.60;99.90;;;;;;5057839;28;20195;-81
2023/12/08 06:31:20;;;;;;;12.30;2.05;;;2.60;99.90;;;;;;5058733;28;20208;-80
2023/12/08 06:33:47;;;;;;;3.28;2.95;;;2.60;99.90;;;;;;5058443;28;20215;-81
2023/12/08 06:36:15;;;;;;;5.07;2.92;;;2.70;99.90;;;;;;5057674;28;20206;-81
2023/12/08 06:38:42;;;;;;;2.92;2.70;;;2.70;99.90;;;;;;5057686;28;20670;-81
2023/12/08 06:41:09;;;;;;;3.40;3.10;;;2.80;99.90;;;;;;5057745;28;20605;-81
2023/12/08 06:43:37;;;;;;;1.52;1.42;;;2.80;99.90;;;;;;5057877;28;20218;-81
2023/12/08 06:46:04;;;;;;;2.30;1.20;;;2.80;99.90;;;;;;5057434;28;20199;-81
2023/12/08 06:48:31;;;;;;;10.93;4.63;;;2.80;99.90;;;;;;5057766;28;20279;-80
2023/12/08 06:50:58;;;;;;;5.32;3.55;;;2.90;99.90;;;;;;5056775;28;20213;-80
2023/12/08 06:53:24;;;;;;;3.15;2.90;;;2.90;99.90;;;;;;5058608;28;20215;-81
2023/12/08 06:55:51;;;;;;;2.22;1.80;;;2.90;99.90;;;;;;5058140;28;20685;-81
2023/12/08 06:58:18;;;;;;;1.65;1.55;;;3.00;99.90;;;;;;5058296;28;20565;-81
2023/12/08 07:00:47;;;;;;;10.75;4.85;;;2.90;99.90;;;;;;5057490;28;20203;-80
2023/12/08 07:03:14;;;;;;;3.25;2.08;;;3.00;99.90;;;;;;5057180;28;20356;-81
2023/12/08 07:05:41;;;;;;;0.88;0.65;;;2.90;99.90;;;;;;5056551;28;20561;-81
2023/12/08 07:08:08;;;;;;;5.07;3.13;;;2.80;99.90;;;;;;5053716;28;20195;-79
2023/12/08 07:10:35;;;;;;;5.38;3.15;;;2.80;99.90;;;;;;5055689;28;20249;-79
2023/12/08 07:13:02;;;;;;;9.68;9.13;;;2.80;99.90;;;;;;5055859;28;20638;-79
2023/12/08 07:15:28;;;;;;;3.72;3.35;;;2.80;99.90;;;;;;5055432;28;20305;-81
2023/12/08 07:17:57;;;;;;;4.90;3.15;;;2.80;99.90;;;;;;5055960;28;20215;-79
2023/12/08 07:20:23;;;;;;;8.32;4.63;;;2.80;99.90;;;;;;5047022;28;20573;-81
2023/12/08 07:22:50;;;;;;;2.33;1.95;;;2.80;99.90;;;;;;5055538;28;20611;-82
2023/12/08 07:25:17;;;;;;;13.65;7.97;;;2.80;99.90;;;;;;5057794;28;20291;-76
2023/12/08 07:27:44;;;;;;;6.68;4.28;;;2.80;99.90;;;;;;5055768;28;20191;-79
2023/12/08 07:30:11;;;;;;;6.15;4.88;;;2.80;99.90;;;;;;5055860;28;20199;-80
2023/12/08 07:32:38;;;;;;;1.85;1.75;;;2.80;99.90;;;;;;5056249;28;20214;-80
2023/12/08 07:35:08;;;;;;;4.18;2.35;;;2.80;99.90;;;;;;5054567;28;20225;-79
2023/12/08 07:37:38;;;;;;;2.33;1.92;;;2.80;99.90;;;;;;5055373;28;20314;-80
2023/12/08 07:40:07;;;;;;;5.93;3.33;;;2.80;99.90;;;;;;5055301;28;20226;-81
2023/12/08 07:42:34;;;;;;;1.13;1.08;;;2.80;99.90;;;;;;5056061;28;20246;-81
2023/12/08 07:45:00;;;;;;;3.33;3.03;;;2.80;99.90;;;;;;5056576;28;20275;-80
2023/12/08 07:47:27;;;;;;;4.13;3.53;;;2.90;99.90;;;;;;5056698;28;20278;-81
2023/12/08 07:49:54;;;;;;;7.30;6.60;;;2.90;99.90;;;;;;5056843;28;20195;-80
2023/12/08 07:52:22;;;;;;;1.50;1.50;;;2.90;99.90;;;;;;5056513;28;20226;-80
2023/12/08 07:54:49;;;;;;;4.05;1.75;;;3.00;99.90;;;;;;5056577;28;20195;-80
2023/12/08 07:57:16;;;;;;;1.77;1.65;;;3.00;99.90;;;;;;5055269;28;20221;-81
2023/12/08 07:59:43;;;;;;;9.18;4.07;;;3.00;99.90;;;;;;5055049;28;20277;-81
2023/12/08 08:02:09;;;;;;;3.95;1.95;;;3.00;99.90;;;;;;5054677;28;20305;-80
2023/12/08 08:04:36;;;;;;;2.47;2.30;;;3.00;99.90;;;;;;5055090;28;20285;-80
2023/12/08 08:07:04;;;;;;;0.93;0.93;;;3.10;99.90;;;;;;5054875;28;20199;-81
2023/12/08 08:09:32;;;;;;;2.92;2.13;;;3.10;99.90;;;;;;5055346;28;20321;-79
2023/12/08 08:11:59;;;;;;;2.08;1.88;;;3.10;99.90;;;;;;5054708;28;20205;-81
2023/12/08 08:14:26;;;;;;;0.50;0.50;;;3.20;99.90;;;;;;5054693;28;20257;-80
2023/12/08 08:16:53;;;;;;;8.77;4.70;;;3.20;99.90;;;;;;5054472;28;20206;-81
2023/12/08 08:19:19;;;;;;;1.15;1.05;;;3.20;99.90;;;;;;5053289;28;20285;-78
2023/12/08 08:21:46;;;;;;;0.40;0.40;;;3.30;99.90;;;;;;5054149;28;20297;-80
2023/12/08 08:24:14;;;;;;;1.98;1.77;;;3.30;99.90;;;;;;5055089;28;20274;-79
2023/12/08 08:26:45;;;;;;;2.97;1.55;;;3.40;99.90;;;;;;5055218;28;20199;-80
2023/12/08 08:29:12;;;;;;;1.92;1.70;;;3.40;99.90;;;;;;5054854;28;20229;-80
2023/12/08 08:31:39;;;;;;;1.63;1.55;;;3.50;99.90;;;;;;5055743;28;20678;-80
2023/12/08 08:34:06;;;;;;;9.70;6.68;;;3.50;99.90;;;;;;5054433;28;20219;-80
2023/12/08 08:36:33;;;;;;;13.38;3.70;;;3.60;99.90;;;;;;5054406;28;20658;-80
2023/12/08 08:39:00;;;;;;;5.28;3.47;;;3.60;99.90;;;;;;5055248;28;20306;-79
2023/12/08 08:41:26;;;;;;;2.70;2.53;;;3.60;99.90;;;;;;5055197;28;20219;-77
2023/12/08 08:43:55;;;;;;;3.28;2.97;;;3.60;99.90;;;;;;5055656;28;20217;-79
2023/12/08 08:46:22;;;;;;;8.55;4.88;;;3.70;99.90;;;;;;5055722;28;20209;-79
2023/12/08 08:48:48;;;;;;;10.02;3.90;;;3.70;99.90;;;;;;5059549;28;20191;-80
2023/12/08 08:51:16;;;;;;;10.57;3.22;;;3.70;99.90;;;;;;5058687;28;20206;-80
2023/12/08 08:53:43;;;;;;;3.92;1.98;;;3.90;99.90;;;;;;5057063;28;20219;-79
2023/12/08 08:56:10;;;;;;;1.42;1.23;;;3.90;99.90;;;;;;5056777;28;20309;-79
2023/12/08 08:58:37;;;;;;;7.82;7.03;;;3.90;99.90;;;;;;5055960;28;20211;-79
2023/12/08 09:01:05;;;;;;;6.97;3.58;;;3.90;99.90;;;;;;5055829;28;20203;-79
2023/12/08 09:03:32;;;;;;;7.13;6.10;;;3.90;99.90;;;;;;5048319;28;20306;-80
2023/12/08 09:05:59;;;;;;;14.85;7.32;;;3.90;99.90;;;;;;5054402;28;20237;-79
2023/12/08 09:08:26;;;;;;;0.60;0.60;;;3.90;99.90;;;;;;5054139;28;20202;-79
2023/12/08 09:10:53;;;;;;;4.25;2.42;;;3.90;99.90;;;;;;5056757;28;20641;-83
2023/12/08 09:13:20;;;;;;;1.45;0.60;;;4.00;99.90;;;;;;5055078;28;20659;-81
2023/12/08 09:15:47;;;;;;;0.88;0.82;;;4.10;99.90;;;;;;5054852;28;20199;-80
2023/12/08 09:18:15;;;;;;;6.20;2.55;;;4.10;99.90;;;;;;5054496;28;20221;-81
2023/12/08 09:20:43;;;;;;;2.05;1.85;;;4.00;99.90;;;;;;5054642;28;20278;-80
2023/12/08 09:23:11;;;;;;;8.52;6.85;;;4.00;99.90;;;;;;5053458;28;20258;-79
2023/12/08 09:25:38;;;;;;;1.77;1.67;;;4.10;99.90;;;;;;5054589;28;20230;-79
2023/12/08 09:28:05;;;;;;;4.10;2.33;;;4.00;99.90;;;;;;5054116;28;20199;-80
2023/12/08 09:30:32;;;;;;;1.83;1.73;;;4.00;99.90;;;;;;5055697;28;20199;-81
2023/12/08 09:32:59;;;;;;;1.60;1.50;;;3.90;99.90;;;;;;5058923;28;20222;-79
2023/12/08 09:35:27;;;;;;;7.25;5.32;;;3.90;99.90;;;;;;5057788;28;20196;-80
2023/12/08 09:37:54;;;;;;;1.92;1.83;;;3.90;99.90;;;;;;5056697;28;20690;-79
2023/12/08 09:40:24;;;;;;;9.15;6.47;;;3.80;99.90;;;;;;5057603;28;20585;-82
2023/12/08 09:42:57;;;;;;;4.90;1.92;;;3.90;99.90;;;;;;5057802;28;20297;-80
2023/12/08 09:45:24;;;;;;;2.47;2.38;;;3.80;99.90;;;;;;5057830;28;20266;-82
2023/12/08 09:47:54;;;;;;;3.67;2.92;;;3.90;99.90;;;;;;5059809;28;20202;-81
2023/12/08 09:50:21;;;;;;;2.97;2.58;;;3.90;99.90;;;;;;5058299;28;20202;-81
2023/12/08 09:52:50;;;;;;;4.18;3.78;;;3.90;99.90;;;;;;5057840;28;20710;-81
2023/12/08 09:55:17;;;;;;;10.38;5.40;;;3.90;99.90;;;;;;5058122;28;20355;-80
2023/12/08 09:57:45;;;;;;;3.85;2.63;;;3.90;99.90;;;;;;5058055;28;20218;-80
2023/12/08 10:00:15;;;;;;;2.22;0.98;;;3.90;99.90;;;;;;5059327;28;20213;-79
2023/12/08 10:02:42;;;;;;;3.80;2.80;;;3.80;99.90;;;;;;5057995;28;20218;-79
2023/12/08 10:05:10;;;;;;;0.70;0.70;;;3.90;99.90;;;;;;5059670;28;20279;-78
2023/12/08 10:07:40;;;;;;;2.40;2.20;;;3.80;99.90;;;;;;5050272;28;20187;-80
2023/12/08 10:10:09;;;;;;;4.00;3.30;;;3.90;99.90;;;;;;5059174;28;20195;-82
2023/12/08 10:12:37;;;;;;;5.80;1.85;;;3.80;99.90;;;;;;5058572;28;20268;-81
2023/12/08 10:15:09;;;;;;;2.65;2.55;;;3.90;99.90;;;;;;5056300;28;20210;-81
2023/12/08 10:17:45;;;;;;;3.50;3.30;;;4.00;99.90;;;;;;5057811;28;20202;-80
2023/12/08 10:20:13;;;;;;;3.90;3.13;;;3.90;99.90;;;;;;5057350;28;20203;-80
2023/12/08 10:22:51;;;;;;;1.80;0.73;;;3.90;99.90;;;;;;5057609;28;20584;-81
2023/12/08 10:25:20;;;;;;;1.35;1.25;;;3.90;99.90;;;;;;5057125;28;20303;-82
2023/12/08 10:27:49;;;;;;;1.83;1.50;;;4.00;99.90;;;;;;5050395;28;20191;-82
2023/12/08 10:30:17;;;;;;;0.68;0.68;;;4.00;99.90;;;;;;5058107;28;20203;-81
2023/12/08 10:32:44;;;;;;;4.35;2.35;;;4.10;99.90;;;;;;5052639;28;20214;-82
2023/12/08 10:35:12;;;;;;;3.05;2.85;;;4.10;99.90;;;;;;5059695;28;20297;-83
2023/12/08 10:37:40;;;;;;;3.90;2.70;;;4.10;99.90;;;;;;5059627;28;20199;-81
2023/12/08 10:40:09;;;;;;;4.60;3.13;;;4.10;99.90;;;;;;5060215;28;20198;-82
2023/12/08 10:42:39;;;;;;;8.23;4.10;;;4.00;99.90;;;;;;5057899;28;20233;-81
2023/12/08 10:45:10;;;;;;;4.80;4.03;;;4.00;99.90;;;;;;5058734;28;20199;-82
2023/12/08 10:47:40;;;;;;;0.50;0.50;;;4.00;99.90;;;;;;5059628;28;20203;-80
2023/12/08 10:50:08;;;;;;;3.15;2.85;;;4.00;99.90;;;;;;5058602;28;20205;-80
2023/12/08 10:52:37;;;;;;;2.63;2.42;;;4.10;99.90;;;;;;5059004;28;20270;-84
2023/12/08 10:55:05;;;;;;;3.42;2.15;;;4.10;99.90;;;;;;5059580;28;20203;-81
2023/12/08 10:57:32;;;;;;;2.00;1.90;;;4.00;99.90;;;;;;5066122;28;20766;-82
2023/12/08 11:00:08;;;;;;;1.58;1.50;;;4.10;99.90;;;;;;5059631;28;20205;-82
2023/12/08 11:02:36;;;;;;;6.97;3.08;;;4.20;99.90;;;;;;5056697;28;20222;-81
2023/12/08 11:05:07;;;;;;;1.48;1.38;;;4.20;99.90;;;;;;5057208;28;20205;-80
2023/12/08 11:07:36;;;;;;;1.40;1.23;;;4.20;99.90;;;;;;5056369;28;20202;-79
2023/12/08 11:10:07;;;;;;;1.17;1.08;;;4.30;99.90;;;;;;5056792;28;20570;-81
2023/12/08 11:12:43;;;;;;;2.47;2.08;;;4.40;99.90;;;;;;5056389;28;20235;-81
2023/12/08 11:15:16;;;;;;;4.10;2.25;;;4.40;99.90;;;;;;5056873;28;20724;-80
2023/12/08 11:17:50;;;;;;;7.93;3.05;;;4.40;99.90;;;;;;5056732;28;20609;-79
2023/12/08 11:20:17;;;;;;;1.38;0.93;;;4.40;99.90;;;;;;5058739;28;20238;-79
2023/12/08 11:22:45;;;;;;;1.38;1.27;;;4.50;99.90;;;;;;5057445;28;20218;-79
2023/12/08 11:25:20;;;;;;;3.17;2.88;;;4.50;99.90;;;;;;5058300;28;20303;-79
2023/12/08 11:27:51;;;;;;;1.45;0.80;;;4.60;99.90;;;;;;5057378;28;20202;-80
2023/12/08 11:30:25;;;;;;;0.70;0.70;;;4.60;99.90;;;;;;5052961;28;20200;-81
2023/12/08 11:33:02;;;;;;;7.40;5.13;;;4.70;99.90;;;;;;5062168;28;20249;-81
2023/12/08 11:35:30;;;;;;;3.42;2.33;;;4.60;99.90;;;;;;5056649;28;20209;-81
2023/12/08 11:37:57;;;;;;;6.38;3.13;;;4.60;99.90;;;;;;5056836;28;20690;-81
2023/12/08 11:40:24;;;;;;;3.22;2.33;;;4.70;99.90;;;;;;5059294;28;20227;-80
2023/12/08 11:42:53;;;;;;;4.75;3.88;;;4.70;99.90;;;;;;5060174;28;20690;-79
2023/12/08 11:45:22;;;;;;;1.40;1.30;;;4.70;99.90;;;;;;5057075;28;20619;-80
2023/12/08 11:47:49;;;;;;;3.72;2.47;;;4.70;99.90;;;;;;5058152;28;20258;-80
2023/12/08 11:50:17;;;;;;;2.47;2.38;;;4.80;99.90;;;;;;5057114;28;20199;-79
2023/12/08 11:52:44;;;;;;;6.03;3.28;;;4.80;99.90;;;;;;5055997;28;20314;-81
2023/12/08 11:55:15;;;;;;;8.13;1.95;;;4.80;99.90;;;;;;5057777;28;20225;-79
2023/12/08 11:57:53;;;;;;;5.35;3.42;;;4.90;99.90;;;;;;5058072;28;20203;-83
2023/12/08 12:00:23;;;;;;;2.90;2.70;;;4.90;99.90;;;;;;5061363;28;20650;-81
2023/12/08 12:02:51;;;;;;;0.57;0.57;;;4.90;99.90;;;;;;5065336;28;20198;-81
2023/12/08 12:05:18;;;;;;;0.40;0.40;;;5.00;99.90;;;;;;5062424;28;20231;-82
2023/12/08 12:07:46;;;;;;;3.40;3.10;;;5.00;99.90;;;;;;5058409;28;20281;-80
2023/12/08 12:10:14;;;;;;;1.10;0.70;;;5.10;99.90;;;;;;5060673;28;20198;-81
2023/12/08 12:12:43;;;;;;;0.55;0.55;;;5.10;99.90;;;;;;5057583;28;20223;-81
2023/12/08 12:15:11;;;;;;;2.35;1.60;;;5.10;99.90;;;;;;5058802;28;20202;-81
2023/12/08 12:17:39;;;;;;;2.67;2.38;;;5.20;99.90;;;;;;5058102;28;20200;-81
2023/12/08 12:20:08;;;;;;;2.55;2.03;;;5.30;99.90;;;;;;5056133;28;20253;-80
2023/12/08 12:22:35;;;;;;;6.82;5.18;;;5.30;99.90;;;;;;5056415;28;20685;-82
2023/12/08 12:25:02;;;;;;;8.93;4.68;;;5.30;99.90;;;;;;5056500;28;20199;-80
2023/12/08 12:27:28;;;;;;;4.65;1.40;;;5.40;99.90;;;;;;5055348;28;20203;-82
2023/12/08 12:29:56;;;;;;;1.92;1.85;;;5.40;99.90;;;;;;5055528;28;20202;-81
2023/12/08 12:32:23;;;;;;;3.70;3.00;;;5.40;99.90;;;;;;5055644;28;20218;-80
2023/12/08 12:34:51;;;;;;;2.05;1.83;;;5.40;99.90;;;;;;5055521;28;20589;-79
2023/12/08 12:37:18;;;;;;;6.10;3.75;;;5.40;99.90;;;;;;5056299;28;20244;-81
2023/12/08 12:39:45;;;;;;;7.72;3.20;;;5.40;99.90;;;;;;5055511;28;20215;-81
2023/12/08 12:42:12;;;;;;;1.83;1.67;;;5.40;99.90;;;;;;5055027;28;20229;-82
2023/12/08 12:44:43;;;;;;;3.47;3.28;;;5.50;99.90;;;;;;5055351;28;20203;-81
2023/12/08 12:47:10;;;;;;;2.10;2.00;;;5.60;99.90;;;;;;5055620;28;20202;-80
2023/12/08 12:49:38;;;;;;;4.57;4.10;;;5.60;99.90;;;;;;5054794;28;20254;-80
2023/12/08 12:54:57;;;;;;;3.40;1.95;;;5.60;99.90;;;;;;5084304;27;1242507;-80
2023/12/08 12:57:44;;;;;;;2.70;1.85;;;5.60;99.90;;;;;;5112196;28;20193;-78
2023/12/08 13:00:13;;;;;;;6.13;2.63;;;5.50;99.90;;;;;;5106998;28;20192;-79
2023/12/08 13:02:40;;;;;;;2.40;2.30;;;5.60;99.90;;;;;;5095469;28;20297;-80